Latest Weather Observations for Terrey Hills

IDN60801

Issued at 9:03 pm EST Tuesday 18 June 2024 (issued every 10 minutes, with the page automatically refreshed every 10 minutes)

About weather observations | Map of weather stations | Latest weather observations for NSW | Other Formats
Station Details ID: 066059 Name: TERREY HILLS AWS Lat: -33.69 Lon: 151.23 Height: 199.0 m
Data from the previous 72 hours. | See also: Recent months at Terrey Hills
Date/Time
EST
Temp
°C
App
Temp
°C
Dew
Point
°C
Rel
Hum
%
Delta-T
°C
Wind Press
QNH
hPa
Press
MSL
hPa
Rain since
9am
mm
Dir  Spd
km/h
Gust
km/h
Spd
kts
Gust
kts
18/09:00pm 10.8 8.6 6.2 73 2.2 WSW 7 15 4 8 - - 0.0
18/08:30pm 10.1 7.9 6.3 77 1.8 WSW 7 9 4 5 - - 0.0
18/08:00pm 10.0 8.0 6.3 78 1.7 W 6 7 3 4 - - 0.0
18/07:30pm 10.9 9.3 6.5 74 2.1 WSW 4 6 2 3 - - 0.0
18/07:00pm 10.9 9.3 6.3 73 2.2 SW 4 6 2 3 - - 0.0
18/06:30pm 11.0 9.8 6.6 74 2.1 SSW 2 2 1 1 - - 0.0
18/06:00pm 11.2 10.0 6.3 72 2.3 S 2 4 1 2 - - 0.0
18/05:30pm 11.4 9.7 6.1 70 2.5 S 4 6 2 3 - - 0.0
18/05:00pm 11.7 10.7 5.8 67 2.8 CALM 0 6 0 3 - - 0.0
18/04:30pm 12.9 10.9 4.6 57 3.8 S 4 7 2 4 - - 0.0
18/04:00pm 14.1 11.6 3.8 50 4.7 SW 6 9 3 5 - - 0.0
18/03:30pm 14.4 12.0 4.1 50 4.8 SW 6 11 3 6 - - 0.0
18/03:00pm 15.2 12.9 4.6 49 5.0 SW 6 11 3 6 - - 0.0
18/02:30pm 14.7 12.1 4.1 49 4.9 WSW 7 15 4 8 - - 0.0
18/02:00pm 14.6 11.4 5.1 53 4.5 SW 11 19 6 10 - - 0.0
18/01:30pm 14.7 11.9 5.2 53 4.5 SW 9 17 5 9 - - 0.0
18/01:00pm 14.5 11.6 4.8 52 4.6 WSW 9 20 5 11 - - 0.0
18/12:30pm 14.1 10.5 5.2 55 4.2 WSW 13 22 7 12 - - 0.0
18/12:00pm 13.6 10.0 5.0 56 4.0 WSW 13 24 7 13 - - 0.0
18/11:30am 13.5 10.3 4.9 56 4.0 WSW 11 20 6 11 - - 0.0
18/11:00am 13.2 9.7 5.4 59 3.7 WSW 13 20 7 11 - - 0.0
18/10:30am 12.8 9.6 5.2 60 3.6 WSW 11 22 6 12 - - 0.0
18/10:00am 12.0 8.3 4.7 61 3.4 WSW 13 20 7 11 - - 0.0
18/09:30am 11.3 8.0 4.3 62 3.2 WSW 11 24 6 13 - - 0.0
18/09:00am 10.6 6.4 3.9 63 3.0 WSW 15 26 8 14 - - 0.8
18/08:30am 10.1 6.2 3.6 64 2.9 WSW 13 24 7 13 - - 0.8
18/08:00am 9.5 5.2 3.5 66 2.6 WSW 15 24 8 13 - - 0.8
18/07:30am 8.9 5.0 3.3 68 2.4 W 13 20 7 11 - - 0.8
18/07:00am 9.1 4.4 3.3 67 2.5 WSW 17 24 9 13 - - 0.8
18/06:30am 8.9 4.9 3.1 67 2.5 W 13 22 7 12 - - 0.8
18/06:00am 9.1 4.8 3.3 67 2.5 WSW 15 22 8 12 - - 0.8
18/05:30am 9.2 4.9 3.4 67 2.5 WSW 15 24 8 13 - - 0.8
18/05:00am 9.2 4.5 3.4 67 2.5 WSW 17 24 9 13 - - 0.8
18/04:30am 9.1 4.8 3.3 67 2.5 WSW 15 26 8 14 - - 0.8
18/04:00am 9.4 5.1 3.4 66 2.6 WSW 15 24 8 13 - - 0.8
18/03:30am 9.6 5.3 3.4 65 2.7 WSW 15 22 8 12 - - 0.8
18/03:00am 10.0 5.7 3.5 64 2.9 WSW 15 24 8 13 - - 0.8
18/02:30am 10.2 6.0 3.7 64 2.9 WSW 15 22 8 12 - - 0.8
18/02:00am 10.1 6.3 3.8 65 2.8 WSW 13 20 7 11 - - 0.8
18/01:30am 10.6 6.8 4.1 64 2.9 WSW 13 24 7 13 - - 0.8
18/01:00am 10.7 7.0 4.4 65 2.9 WSW 13 22 7 12 - - 0.8
18/12:30am 11.2 7.2 4.7 64 3.0 WSW 15 20 8 11 - - 0.8
18/12:00am 10.9 6.9 4.8 66 2.8 WSW 15 24 8 13 - - 0.8
 
Date/Time
EST
Temp
°C
App
Temp
°C
Dew
Point
°C
Rel
Hum
%
Delta-T
°C
Wind Press
QNH
hPa
Press
MSL
hPa
Rain since
9am
mm
Dir  Spd
km/h
Gust
km/h
Spd
kts
Gust
kts
17/11:30pm 11.3 7.3 5.0 65 2.9 WSW 15 22 8 12 - - 0.8
17/11:00pm 11.7 7.3 4.7 62 3.2 SW 17 24 9 13 - - 0.8
17/10:30pm 11.7 7.7 4.9 63 3.1 WSW 15 24 8 13 - - 0.8
17/10:00pm 12.0 8.4 5.2 63 3.2 SW 13 24 7 13 - - 0.8
17/09:30pm 12.0 8.4 5.0 62 3.2 SW 13 22 7 12 - - 0.8
17/09:00pm 12.1 8.1 5.0 62 3.3 SW 15 24 8 13 - - 0.8
17/08:30pm 12.6 9.0 5.1 60 3.5 SW 13 24 7 13 - - 0.8
17/08:00pm 12.4 9.2 5.1 61 3.4 SW 11 20 6 11 - - 0.8
17/07:30pm 12.6 8.6 5.1 60 3.5 SW 15 24 8 13 - - 0.8
17/07:00pm 12.6 9.0 5.1 60 3.5 SW 13 20 7 11 - - 0.8
17/06:30pm 13.2 10.1 5.4 59 3.7 SW 11 20 6 11 - - 0.8
17/06:00pm 13.1 9.2 5.5 60 3.6 SW 15 26 8 14 - - 0.8
17/05:30pm 13.1 9.8 6.2 63 3.3 WSW 13 24 7 13 - - 0.8
17/05:00pm 13.0 10.6 7.0 67 2.9 WSW 9 19 5 10 - - 0.8
17/04:30pm 13.1 10.8 7.5 69 2.8 SW 9 15 5 8 - - 0.8
17/04:00pm 13.3 11.2 8.2 71 2.6 SW 9 17 5 9 - - 0.8
17/03:30pm 13.4 11.4 8.7 73 2.4 SW 9 17 5 9 - - 0.8
17/03:00pm 13.1 11.7 9.5 79 1.9 SW 7 17 4 9 - - 0.8
17/02:30pm 12.5 11.2 10.0 85 1.3 SW 7 15 4 8 - - 0.8
17/02:00pm 11.7 8.5 9.8 88 1.0 SSW 17 39 9 21 - - 0.8
17/01:30pm 11.9 9.3 9.5 85 1.2 SW 13 24 7 13 - - 0.6
17/01:00pm 14.5 11.7 7.1 61 3.7 SW 11 19 6 10 - - 0.0
17/12:30pm 13.9 10.2 6.5 61 3.6 WSW 15 24 8 13 - - 0.0
17/12:00pm 14.0 10.3 6.1 59 3.8 SW 15 24 8 13 - - 0.0
17/11:30am 14.2 10.1 6.3 59 3.8 SW 17 32 9 17 - - 0.0
17/11:00am 14.2 9.8 6.6 60 3.7 SW 19 35 10 19 - - 0.0
17/10:30am 13.7 9.5 5.8 59 3.8 SW 17 30 9 16 - - 0.0
17/10:00am 13.1 8.5 5.5 60 3.6 WSW 19 37 10 20 - - 0.0
17/09:30am 12.3 7.5 4.8 60 3.5 WSW 19 37 10 20 - - 0.0
17/09:00am 11.6 7.1 4.1 60 3.4 WSW 17 24 9 13 - - 0.0
17/08:30am 11.4 6.5 3.9 60 3.4 WSW 19 32 10 17 - - 0.0
17/08:00am 10.3 5.0 3.1 61 3.2 WSW 20 33 11 18 - - 0.0
17/07:30am 10.0 4.9 3.1 62 3.0 WSW 19 30 10 16 - - 0.0
17/07:00am 9.7 4.6 2.8 62 3.0 WSW 19 30 10 16 - - 0.0
17/06:30am 9.4 4.2 2.7 63 2.9 WSW 19 28 10 15 - - 0.0
17/06:00am 9.4 4.6 2.5 62 3.0 W 17 28 9 15 - - 0.0
17/05:30am 9.4 4.9 2.3 61 3.0 W 15 26 8 14 - - 0.0
17/05:00am 9.4 4.5 2.3 61 3.0 WSW 17 28 9 15 - - 0.0
17/04:30am 9.0 4.1 1.9 61 3.0 WSW 17 26 9 14 - - 0.0
17/04:00am 9.1 4.2 1.8 60 3.1 WSW 17 28 9 15 - - 0.0
17/03:30am 9.0 4.1 1.7 60 3.1 WSW 17 26 9 14 - - 0.0
17/03:00am 9.1 3.7 1.5 59 3.2 WSW 19 28 10 15 - - 0.0
17/02:30am 9.2 3.8 1.4 58 3.3 WSW 19 30 10 16 - - 0.0
17/02:00am 9.3 3.9 1.5 58 3.3 WSW 19 30 10 16 - - 0.0
17/01:30am 9.0 3.6 1.4 59 3.2 WSW 19 30 10 16 - - 0.0
17/01:00am 9.3 3.9 1.2 57 3.4 WSW 19 33 10 18 - - 0.0
17/12:30am 8.3 4.1 1.5 62 2.8 W 13 19 7 10 - - 0.0
17/12:00am 8.3 4.5 1.5 62 2.8 W 11 19 6 10 - - 0.0
 
Date/Time
EST
Temp
°C
App
Temp
°C
Dew
Point
°C
Rel
Hum
%
Delta-T
°C
Wind Press
QNH
hPa
Press
MSL
hPa
Rain since
9am
mm
Dir  Spd
km/h
Gust
km/h
Spd
kts
Gust
kts
16/11:30pm 8.2 4.3 1.4 62 2.8 W 11 17 6 9 - - 0.0
16/11:00pm 8.2 4.7 1.4 62 2.8 W 9 17 5 9 - - 0.0
16/10:30pm 8.7 5.2 1.1 59 3.1 W 9 15 5 8 - - 0.0
16/10:00pm 8.9 5.3 0.9 57 3.3 W 9 15 5 8 - - 0.0
16/09:30pm 9.3 5.7 0.7 55 3.5 W 9 17 5 9 - - 0.0
16/09:00pm 9.9 5.9 0.8 53 3.8 W 11 20 6 11 - - 0.0
16/08:30pm 9.7 5.9 1.6 57 3.4 W 11 19 6 10 - - 0.0
16/08:00pm 9.9 6.5 1.8 57 3.4 W 9 17 5 9 - - 0.0
16/07:30pm 10.6 6.8 1.7 54 3.8 W 11 19 6 10 - - 0.0
16/07:00pm 10.6 6.8 1.7 54 3.8 WSW 11 19 6 10 - - 0.0
16/06:30pm 10.8 7.0 1.6 53 3.9 W 11 19 6 10 - - 0.0
16/06:00pm 10.8 7.1 2.1 55 3.7 W 11 17 6 9 - - 0.0
16/05:30pm 10.8 7.5 2.4 56 3.6 W 9 15 5 8 - - 0.0
16/05:00pm 11.2 8.2 2.2 54 3.9 W 7 13 4 7 - - 0.0
16/04:30pm 12.4 9.1 2.3 50 4.4 W 9 17 5 9 - - 0.0
16/04:00pm 13.3 9.9 1.9 46 5.0 W 9 19 5 10 - - 0.0
16/03:30pm 13.8 9.9 1.1 42 5.5 WSW 11 22 6 12 - - 0.0
16/03:00pm 13.9 9.7 1.9 44 5.3 WSW 13 24 7 13 - - 0.0
16/02:30pm 14.0 10.3 2.3 45 5.2 WSW 11 20 6 11 - - 0.0
16/02:00pm 13.7 9.4 1.0 42 5.5 SW 13 22 7 12 - - 0.0
16/01:30pm 13.7 9.1 1.4 43 5.3 WSW 15 28 8 15 - - 0.0
16/01:00pm 13.6 9.8 1.9 45 5.1 WSW 11 24 6 13 - - 0.0
16/12:30pm 13.1 8.5 1.5 45 5.0 WSW 15 28 8 15 - - 0.0
16/12:00pm 12.9 8.5 2.5 49 4.6 WSW 15 24 8 13 - - 0.0
16/11:30am 12.3 8.0 3.0 53 4.1 WSW 15 28 8 15 - - 0.0
16/11:00am 11.9 7.9 2.6 53 4.1 WSW 13 30 7 16 - - 0.0
16/10:30am 11.4 7.5 3.2 57 3.6 WSW 13 26 7 14 - - 0.0
16/10:00am 10.8 7.0 3.8 62 3.1 WSW 13 22 7 12 - - 0.0
16/09:30am 10.3 6.5 3.8 64 2.9 WSW 13 24 7 13 - - 0.0
16/09:00am 9.5 5.3 3.7 67 2.6 WSW 15 24 8 13 - - 1.8
16/08:30am 8.9 4.7 3.7 70 2.3 WSW 15 26 8 14 - - 1.8
16/08:00am 8.2 3.6 3.7 73 2.0 WSW 17 28 9 15 - - 1.8
16/07:30am 7.9 3.7 3.6 74 1.9 W 15 24 8 13 - - 1.8
16/07:00am 7.6 3.7 3.5 75 1.8 WSW 13 20 7 11 - - 1.8
16/06:30am 7.7 3.8 3.6 75 1.8 W 13 17 7 9 - - 1.8
16/06:00am 8.0 4.2 3.7 74 1.9 W 13 22 7 12 - - 1.8
16/05:30am 8.3 4.1 3.9 74 1.9 WSW 15 22 8 12 - - 1.8
16/05:00am 8.3 4.2 4.1 75 1.8 WSW 15 26 8 14 - - 1.8
16/04:30am 7.9 4.2 4.3 78 1.6 WSW 13 19 7 10 - - 1.8
16/04:00am 8.4 4.3 4.4 76 1.8 WSW 15 20 8 11 - - 1.8
16/03:30am 8.6 4.5 4.4 75 1.9 WSW 15 20 8 11 - - 1.8
16/03:00am 8.8 4.7 4.2 73 2.0 WSW 15 24 8 13 - - 1.8
16/02:30am 9.2 5.1 4.4 72 2.1 WSW 15 24 8 13 - - 1.6
16/02:00am 9.4 5.4 4.8 73 2.1 WSW 15 20 8 11 - - 1.6
16/01:30am 9.6 5.6 5.0 73 2.1 WSW 15 20 8 11 - - 1.6
16/01:00am 9.7 5.8 5.3 74 2.0 WSW 15 24 8 13 - - 1.6
16/12:30am 9.8 6.3 5.6 75 1.9 WSW 13 20 7 11 - - 1.6
16/12:00am 9.8 6.4 6.0 77 1.8 WSW 13 20 7 11 - - 1.6
 
Date/Time
EST
Temp
°C
App
Temp
°C
Dew
Point
°C
Rel
Hum
%
Delta-T
°C
Wind Press
QNH
hPa
Press
MSL
hPa
Rain since
9am
mm
Dir  Spd
km/h
Gust
km/h
Spd
kts
Gust
kts
15/11:30pm 9.9 7.3 6.3 78 1.7 WSW 9 17 5 9 - - 1.6
15/11:00pm 10.3 7.4 6.5 77 1.8 WSW 11 20 6 11 - - 1.6
15/10:30pm 10.4 7.1 6.5 77 1.8 WSW 13 24 7 13 - - 1.6
15/10:00pm 10.3 7.1 7.0 80 1.6 WSW 13 22 7 12 - - 1.6
15/09:30pm 10.3 6.8 7.2 81 1.5 WSW 15 26 8 14 - - 1.6

Other formats

Comma delimited format used in spreadsheet applications
http://www.bom.gov.au/fwo/IDN60801/IDN60801.94759.axf

JavaScript Object Notation format (JSON) in row-major order
http://www.bom.gov.au/fwo/IDN60801/IDN60801.94759.json

Data quality

Most of these data are generated automatically and are frequently updated. Quality checks on data are not normally performed. It is possible for incorrect values to appear. Refer to information at About Latest Weather Observations and please check the disclaimer before using these data.